Time;durP1;ratioP1;P1;durP2;ratioP2;P2;SDS_P1;SDS_P2;PMS_P1;PMS_P2;Temp;Humidity;BMP_temperature;BMP_pressure;BME280_temperature;BME280_humidity;BME280_pressure;Samples;Min_cycle;Max_cycle;Signal;HPM_P1;HPM_P2
2022/06/30 00:02:09;;;;;;;4.20;2.57;;;;;;;24.74;58.26;99625.41;6337982;28;20277;-69
2022/06/30 00:05:10;;;;;;;5.13;2.72;;;;;;;24.61;58.40;99625.34;6328809;28;20168;-69
2022/06/30 00:08:11;;;;;;;6.88;2.78;;;;;;;24.53;59.00;99623.66;6311492;28;20035;-70
2022/06/30 00:11:12;;;;;;;6.00;2.90;;;;;;;24.47;63.27;99615.59;6328215;28;20126;-70
2022/06/30 00:14:13;;;;;;;6.00;3.25;;;;;;;24.43;61.37;99617.81;6328922;28;20055;-70
2022/06/30 00:17:14;;;;;;;7.35;2.60;;;;;;;24.39;61.84;99605.88;6312160;28;20482;-69
2022/06/30 00:20:15;;;;;;;6.53;2.42;;;;;;;24.34;60.02;99609.13;6346740;28;20130;-70
2022/06/30 00:23:16;;;;;;;4.55;2.65;;;;;;;24.30;60.05;99607.06;6328627;28;20068;-70
2022/06/30 00:26:17;;;;;;;4.82;2.50;;;;;;;24.26;58.57;99600.47;6294818;28;20040;-71
2022/06/30 00:29:18;;;;;;;7.55;3.00;;;;;;;24.21;59.74;99610.88;6295156;28;20050;-70
2022/06/30 00:32:19;;;;;;;6.47;2.80;;;;;;;24.12;58.88;99615.53;6346703;28;20035;-70
2022/06/30 00:35:20;;;;;;;4.32;2.35;;;;;;;24.07;58.83;99612.59;6328608;28;20603;-69
2022/06/30 00:38:21;;;;;;;5.50;2.42;;;;;;;24.01;59.39;99608.88;6312022;28;20450;-69
2022/06/30 00:41:22;;;;;;;5.22;2.90;;;;;;;24.02;60.66;99615.84;6328541;28;20630;-69
2022/06/30 00:44:26;;;;;;;7.43;2.75;;;;;;;23.92;60.86;99618.00;6330406;28;20047;-70
2022/06/30 00:47:27;;;;;;;7.45;3.00;;;;;;;23.79;61.90;99610.72;6317364;28;20134;-70
2022/06/30 00:50:28;;;;;;;;;;;;;;;23.81;60.88;99618.53;6322359;28;20047;-69
2022/06/30 00:53:31;;;;;;;5.93;2.63;;;;;;;23.78;61.08;99610.91;6332597;28;20057;-69
2022/06/30 00:56:34;;;;;;;6.15;2.75;;;;;;;23.74;61.09;99607.75;6332197;28;20573;-69
2022/06/30 00:59:38;;;;;;;6.40;2.53;;;;;;;23.71;62.77;99598.31;6325264;28;20058;-70
2022/06/30 01:02:40;;;;;;;6.30;2.70;;;;;;;23.65;61.16;99595.59;6325200;28;20047;-70
2022/06/30 01:05:43;;;;;;;5.18;2.97;;;;;;;23.59;63.70;99601.69;6306813;28;20036;-69
2022/06/30 01:08:46;;;;;;;6.22;2.80;;;;;;;23.54;61.26;99600.41;6340314;28;20040;-70
2022/06/30 01:15:09;;;;;;;6.47;2.80;;;;;;;23.52;62.83;99599.75;6335249;28;20386;-70
2022/06/30 01:18:10;;;;;;;6.78;2.85;;;;;;;23.45;66.25;99601.53;6350128;28;20055;-70
2022/06/30 01:21:11;;;;;;;7.90;3.17;;;;;;;23.34;64.61;99602.84;6309688;28;20040;-70
2022/06/30 01:24:13;;;;;;;;;;;;;;;23.34;64.01;99599.34;6291643;28;20479;-69
2022/06/30 01:27:14;;;;;;;7.17;2.70;;;;;;;23.35;63.56;99601.03;6332677;28;20378;-69
2022/06/30 01:30:15;;;;;;;11.13;2.70;;;;;;;23.33;63.33;99600.38;6350815;28;20032;-70
2022/06/30 01:33:16;;;;;;;11.45;2.80;;;;;;;23.32;63.42;99598.72;6332628;28;20505;-69
2022/06/30 01:36:17;;;;;;;5.73;2.77;;;;;;;23.20;63.01;99598.38;6314784;28;20043;-69
2022/06/30 01:39:17;;;;;;;4.37;2.97;;;;;;;23.17;65.01;99601.41;6306538;28;20458;-70
2022/06/30 01:42:20;;;;;;;5.80;2.78;;;;;;;23.10;64.28;99600.50;6324498;28;20040;-71
2022/06/30 01:45:22;;;;;;;5.57;3.10;;;;;;;23.01;62.08;99598.94;6290418;28;20060;-69
2022/06/30 01:48:24;;;;;;;;;;;;;;;22.97;63.94;99597.66;6325448;28;20427;-70
2022/06/30 01:51:25;;;;;;;10.32;2.92;;;;;;;22.89;62.44;99594.06;6306914;28;20393;-69
2022/06/30 01:54:26;;;;;;;4.73;3.00;;;;;;;22.86;63.25;99596.31;6294377;28;20039;-70
2022/06/30 01:57:27;;;;;;;11.25;3.28;;;;;;;22.87;64.11;99587.28;6290318;28;20048;-69
2022/06/30 02:00:28;;;;;;;6.93;2.73;;;;;;;22.87;66.16;99595.28;6324755;28;20052;-69
2022/06/30 02:03:29;;;;;;;8.93;3.35;;;;;;;22.83;63.64;99586.81;6306689;28;20046;-70
2022/06/30 02:06:32;;;;;;;5.43;2.83;;;;;;;22.74;66.10;99586.09;6323239;28;20039;-69
2022/06/30 02:09:33;;;;;;;4.25;2.67;;;;;;;22.87;69.06;99584.63;6290531;28;20051;-69
2022/06/30 02:12:46;;;;;;;6.37;2.60;;;;;;;22.75;68.44;99592.25;6289743;28;20043;-70
2022/06/30 02:15:47;;;;;;;5.82;2.67;;;;;;;22.65;66.09;99589.03;6347280;28;20275;-70
2022/06/30 02:18:48;;;;;;;7.35;2.80;;;;;;;22.59;63.88;99589.75;6331685;28;20052;-70
2022/06/30 02:21:49;;;;;;;6.10;2.90;;;;;;;22.62;67.79;99597.38;6314582;28;20144;-69
2022/06/30 02:24:53;;;;;;;6.95;2.67;;;;;;;22.57;69.25;99603.25;6317949;28;20047;-69
2022/06/30 02:27:54;;;;;;;5.63;2.70;;;;;;;22.48;68.24;99607.00;6305420;28;20036;-69
2022/06/30 02:30:55;;;;;;;;;;;;;;;22.51;70.20;99610.13;6340547;28;20043;-69
2022/06/30 02:33:57;;;;;;;5.80;2.80;;;;;;;22.52;66.58;99600.31;6348405;28;19919;-69
2022/06/30 02:36:57;;;;;;;9.47;3.07;;;;;;;22.48;65.44;99599.84;6313342;28;20036;-69
2022/06/30 02:39:58;;;;;;;4.80;2.70;;;;;;;22.47;66.74;99608.03;6304802;28;20048;-69
2022/06/30 02:42:59;;;;;;;5.27;3.23;;;;;;;22.46;65.82;99609.00;6288333;28;20418;-69
2022/06/30 02:46:02;;;;;;;8.60;3.10;;;;;;;22.41;69.06;99609.56;6279565;28;20056;-69
2022/06/30 02:49:05;;;;;;;9.95;3.28;;;;;;;22.39;66.28;99614.22;6296437;28;20041;-69
2022/06/30 02:52:07;;;;;;;5.82;2.55;;;;;;;22.41;64.90;99606.09;6296455;28;20054;-69
2022/06/30 02:55:08;;;;;;;6.80;2.85;;;;;;;22.37;66.14;99613.59;6296276;28;20121;-69
2022/06/30 02:58:09;;;;;;;7.60;2.88;;;;;;;22.35;70.75;99612.94;6299867;28;20040;-69
2022/06/30 03:01:10;;;;;;;10.13;3.00;;;;;;;22.32;67.63;99614.13;6304510;28;20047;-69
2022/06/30 03:04:11;;;;;;;7.30;3.13;;;;;;;22.26;71.09;99614.84;6304337;28;20533;-69
2022/06/30 03:07:12;;;;;;;10.67;3.37;;;;;;;22.27;68.81;99621.00;6321553;28;20285;-69
2022/06/30 03:10:13;;;;;;;7.07;3.70;;;;;;;22.33;70.22;99626.41;6322170;28;20127;-69
2022/06/30 03:13:14;;;;;;;12.87;3.57;;;;;;;22.36;67.31;99625.22;6320959;28;20040;-70
2022/06/30 03:16:15;;;;;;;21.33;4.03;;;;;;;22.31;65.93;99623.09;6287457;28;20093;-70
2022/06/30 03:19:19;;;;;;;7.70;3.40;;;;;;;22.22;67.84;99621.50;6322062;28;20044;-70
2022/06/30 03:22:20;;;;;;;8.13;3.33;;;;;;;22.25;69.01;99623.00;6321940;28;20040;-69
2022/06/30 03:25:21;;;;;;;5.35;3.10;;;;;;;22.23;71.07;99623.16;6303905;28;20073;-69
2022/06/30 03:28:21;;;;;;;7.90;3.30;;;;;;;22.27;72.23;99626.31;6303745;28;20040;-69
2022/06/30 03:31:22;;;;;;;8.43;3.50;;;;;;;22.28;70.01;99623.47;6320414;28;20093;-69
2022/06/30 03:34:23;;;;;;;10.97;3.20;;;;;;;22.35;70.44;99628.88;6321713;28;20044;-69
2022/06/30 03:37:25;;;;;;;5.47;3.10;;;;;;;22.44;73.95;99638.41;6315126;28;20127;-69
2022/06/30 03:40:25;;;;;;;7.77;3.37;;;;;;;22.44;72.49;99643.75;6295198;28;20055;-70
2022/06/30 03:43:26;;;;;;;6.67;3.60;;;;;;;22.50;67.81;99647.50;6278516;28;20040;-69
2022/06/30 03:46:27;;;;;;;6.40;3.80;;;;;;;22.55;66.72;99645.16;6294866;28;20044;-69
2022/06/30 03:49:28;;;;;;;8.83;4.07;;;;;;;22.62;66.02;99647.91;6296100;28;20479;-69
2022/06/30 03:52:34;;;;;;;9.52;4.07;;;;;;;22.76;64.96;99643.63;6294987;28;20044;-69
2022/06/30 03:55:39;;;;;;;7.25;4.22;;;;;;;22.83;64.99;99650.66;6278532;28;20520;-69
2022/06/30 03:58:39;;;;;;;16.88;4.03;;;;;;;22.91;65.53;99644.44;6294796;28;20052;-69
2022/06/30 04:01:41;;;;;;;12.13;4.13;;;;;;;22.97;64.77;99649.03;6294803;28;20044;-70
2022/06/30 04:04:41;;;;;;;11.93;4.30;;;;;;;23.06;63.84;99649.78;6294938;28;20047;-69
2022/06/30 04:07:44;;;;;;;9.90;4.20;;;;;;;23.08;63.92;99650.41;6277991;28;20097;-69
2022/06/30 04:10:45;;;;;;;13.15;4.03;;;;;;;23.18;64.91;99645.63;6295906;28;20041;-69
2022/06/30 04:13:45;;;;;;;15.10;4.10;;;;;;;23.26;64.65;99658.03;6277978;28;20083;-70
2022/06/30 04:16:49;;;;;;;10.03;4.17;;;;;;;23.39;63.91;99649.38;6277927;28;20045;-70
2022/06/30 04:19:50;;;;;;;16.17;4.00;;;;;;;23.52;63.98;99657.53;6294764;28;20048;-69
2022/06/30 04:22:52;;;;;;;9.13;3.97;;;;;;;23.62;63.82;99665.22;6295739;28;20090;-69
2022/06/30 04:25:53;;;;;;;12.10;4.07;;;;;;;23.68;64.05;99661.78;6277575;28;20576;-70
2022/06/30 04:28:54;;;;;;;25.05;4.90;;;;;;;23.78;63.46;99661.50;6295506;28;20036;-70
2022/06/30 04:35:14;;;;;;;16.95;4.85;;;;;;;24.00;62.73;99659.69;6296987;28;20452;-70
2022/06/30 04:38:15;;;;;;;15.73;4.18;;;;;;;24.13;62.28;99657.13;6294162;28;20050;-69
2022/06/30 04:41:25;;;;;;;10.93;4.47;;;;;;;24.26;61.66;99659.13;6300373;28;20044;-70
2022/06/30 04:44:26;;;;;;;15.10;4.43;;;;;;;24.36;60.94;99664.94;6295924;28;20422;-70
2022/06/30 04:47:27;;;;;;;16.57;3.93;;;;;;;24.41;60.02;99669.69;6318372;28;20055;-70
2022/06/30 04:50:28;;;;;;;12.10;4.43;;;;;;;24.54;59.63;99672.47;6318420;28;20401;-70
2022/06/30 04:53:29;;;;;;;20.85;3.97;;;;;;;24.67;60.10;99672.59;6320319;28;20044;-70
2022/06/30 04:56:31;;;;;;;8.63;3.80;;;;;;;24.74;60.36;99678.78;6319259;28;20041;-70
2022/06/30 04:59:32;;;;;;;17.20;3.58;;;;;;;24.82;59.92;99680.47;6320328;28;20052;-70
2022/06/30 05:02:33;;;;;;;18.75;3.83;;;;;;;24.93;59.49;99682.63;6319090;28;20506;-69
2022/06/30 05:05:33;;;;;;;19.55;4.68;;;;;;;25.03;59.33;99692.91;6315504;28;20040;-69
2022/06/30 05:08:34;;;;;;;19.40;4.13;;;;;;;25.16;58.14;99688.66;6301476;28;20639;-71
2022/06/30 05:11:36;;;;;;;8.38;3.92;;;;;;;25.25;59.15;99693.69;6293937;28;20044;-71
2022/06/30 05:14:36;;;;;;;7.13;3.87;;;;;;;25.34;58.16;99691.66;6303942;28;20044;-70
2022/06/30 05:17:37;;;;;;;15.13;4.73;;;;;;;25.46;59.23;99686.59;6314831;28;20284;-70
2022/06/30 05:20:39;;;;;;;18.00;3.90;;;;;;;25.56;57.74;99686.22;6318722;28;20754;-70
2022/06/30 05:26:28;;;;;;;;;;;;;;;25.70;55.95;99696.75;6320516;28;20043;-70
2022/06/30 05:27:01;;;;;;;22.67;4.13;;;;;;;25.92;54.77;99702.81;6318572;28;19920;-70
2022/06/30 05:30:03;;;;;;;11.25;3.78;;;;;;;26.03;54.75;99705.91;6321532;28;20399;-70
2022/06/30 05:33:05;;;;;;;10.65;4.22;;;;;;;26.19;55.51;99707.34;6323207;28;20040;-71
2022/06/30 05:36:11;;;;;;;;;;;;;;;26.27;55.91;99704.47;6303989;28;20482;-71
2022/06/30 05:39:15;;;;;;;5.25;3.33;;;;;;;26.40;55.89;99701.84;6305248;28;19924;-71
2022/06/30 05:42:16;;;;;;;16.00;3.80;;;;;;;26.54;53.17;99702.63;6295878;28;20048;-70
2022/06/30 05:45:16;;;;;;;10.90;3.58;;;;;;;26.70;52.99;99698.75;6298282;28;20048;-71
2022/06/30 05:48:18;;;;;;;;;;;;;;;26.83;52.19;99705.94;6272438;28;20482;-70
2022/06/30 05:51:19;;;;;;;24.20;3.90;;;;;;;27.00;52.90;99711.69;6323256;28;19920;-71
2022/06/30 05:54:22;;;;;;;18.35;4.40;;;;;;;27.13;51.88;99708.97;6305211;28;20401;-71
2022/06/30 05:57:23;;;;;;;23.70;4.55;;;;;;;27.30;52.25;99706.69;6323642;28;20036;-70
2022/06/30 06:00:27;;;;;;;21.70;3.85;;;;;;;27.52;47.91;99709.91;6323773;28;20047;-70
2022/06/30 06:03:28;;;;;;;40.47;4.05;;;;;;;27.76;50.61;99707.50;6305605;28;20383;-70
2022/06/30 06:06:29;;;;;;;21.30;4.13;;;;;;;27.93;47.88;99706.00;6272359;28;20041;-70
2022/06/30 06:09:30;;;;;;;35.83;4.03;;;;;;;28.11;45.58;99707.97;6305176;28;20448;-70
2022/06/30 06:12:31;;;;;;;20.83;4.20;;;;;;;28.32;45.21;99714.81;6305326;28;20093;-70
2022/06/30 06:15:32;;;;;;;22.30;4.60;;;;;;;28.56;45.41;99709.69;6272101;28;20052;-70
2022/06/30 06:18:33;;;;;;;8.18;3.00;;;;;;;28.77;42.70;99712.00;6323659;28;20123;-70
2022/06/30 06:21:36;;;;;;;9.88;2.92;;;;;;;29.01;40.54;99710.28;6314138;28;20111;-71
2022/06/30 06:24:36;;;;;;;8.18;3.25;;;;;;;29.25;42.49;99716.69;6315798;28;20047;-71
2022/06/30 06:27:38;;;;;;;12.10;3.33;;;;;;;29.43;41.74;99710.47;6304725;28;20444;-71
2022/06/30 06:30:38;;;;;;;;;;;;;;;29.55;42.26;99715.94;6324037;28;20044;-71
2022/06/30 06:33:43;;;;;;;8.77;3.13;;;;;;;29.74;41.77;99711.34;6330203;28;19943;-71
2022/06/30 06:36:44;;;;;;;13.50;3.03;;;;;;;29.91;40.14;99717.72;6291607;28;20036;-71
2022/06/30 06:39:45;;;;;;;20.77;3.00;;;;;;;30.12;38.31;99715.56;6294750;28;20043;-71
2022/06/30 06:42:46;;;;;;;6.85;2.67;;;;;;;30.21;38.45;99719.59;6315317;28;20043;-71
2022/06/30 06:45:47;;;;;;;9.32;3.17;;;;;;;30.48;37.60;99716.50;6302216;28;20036;-71
2022/06/30 06:48:48;;;;;;;10.50;2.70;;;;;;;30.68;35.83;99713.44;6337536;28;20044;-71
2022/06/30 06:51:49;;;;;;;11.45;3.03;;;;;;;30.75;38.91;99713.34;6304661;28;20542;-71
2022/06/30 06:54:49;;;;;;;11.07;3.25;;;;;;;30.93;35.64;99716.75;6305052;28;20063;-70
2022/06/30 06:57:50;;;;;;;6.90;2.80;;;;;;;30.94;36.64;99709.50;6304459;28;20044;-71
2022/06/30 07:00:54;;;;;;;8.68;3.05;;;;;;;31.30;37.55;99716.47;6324771;28;20043;-71
2022/06/30 07:03:55;;;;;;;12.32;2.70;;;;;;;31.52;37.12;99713.16;6333959;28;20044;-70
2022/06/30 07:06:56;;;;;;;7.95;2.78;;;;;;;31.39;33.55;99708.00;6329324;28;20112;-71
2022/06/30 07:09:57;;;;;;;22.23;2.80;;;;;;;31.58;34.64;99705.97;6303460;28;20502;-70
2022/06/30 07:12:58;;;;;;;6.38;2.67;;;;;;;31.55;33.99;99707.28;6306047;28;20040;-70
2022/06/30 07:15:59;;;;;;;4.65;2.53;;;;;;;31.99;35.14;99710.28;6286180;28;20101;-71
2022/06/30 07:19:00;;;;;;;5.07;2.70;;;;;;;32.23;35.35;99702.06;6291818;28;20051;-71
2022/06/30 07:22:01;;;;;;;;;;;;;;;32.31;33.17;99707.84;6321471;28;20067;-71
2022/06/30 07:25:03;;;;;;;5.83;2.20;;;;;;;32.61;33.36;99714.81;6345839;28;20419;-71
2022/06/30 07:28:04;;;;;;;4.90;2.30;;;;;;;32.65;33.07;99712.44;6328851;28;20044;-71
2022/06/30 07:31:04;;;;;;;;;;;;;;;32.84;30.98;99705.69;6334378;28;20494;-71
2022/06/30 07:34:05;;;;;;;3.90;2.50;;;;;;;33.07;32.90;99712.78;6320388;28;20000;-71
2022/06/30 07:37:06;;;;;;;;;;;;;;;33.11;30.95;99711.25;6303936;28;20276;-71
2022/06/30 07:40:08;;;;;;;8.50;2.90;;;;;;;33.35;31.86;99713.69;6320334;28;20374;-71
2022/06/30 07:43:11;;;;;;;5.38;2.22;;;;;;;32.74;29.94;99719.09;6330808;28;20074;-71
2022/06/30 07:46:14;;;;;;;15.95;2.80;;;;;;;33.48;31.54;99713.31;6346329;28;20391;-71
2022/06/30 07:49:17;;;;;;;8.27;2.75;;;;;;;33.70;33.35;99707.88;6345179;28;20047;-72
2022/06/30 07:52:18;;;;;;;8.30;2.50;;;;;;;33.85;33.55;99712.66;6313413;28;20075;-70
2022/06/30 07:55:19;;;;;;;10.85;2.70;;;;;;;33.83;30.61;99709.41;6286539;28;20048;-71
2022/06/30 07:58:20;;;;;;;8.90;2.45;;;;;;;33.62;30.33;99708.34;6302898;28;20040;-71
2022/06/30 08:01:21;;;;;;;6.68;2.28;;;;;;;33.81;30.26;99702.59;6335369;28;20066;-71
2022/06/30 08:04:22;;;;;;;5.32;2.70;;;;;;;33.83;30.24;99705.84;6306942;28;20036;-71
2022/06/30 08:07:23;;;;;;;15.00;2.60;;;;;;;34.06;28.49;99707.44;6328743;28;20043;-72
2022/06/30 08:10:23;;;;;;;6.50;2.55;;;;;;;33.56;27.97;99703.09;6290988;28;20032;-71
2022/06/30 08:13:24;;;;;;;9.45;2.78;;;;;;;34.21;28.29;99698.66;6312645;28;20513;-70
2022/06/30 08:16:26;;;;;;;5.43;2.70;;;;;;;34.01;28.66;99700.06;6294461;28;20035;-71
2022/06/30 08:19:29;;;;;;;4.90;2.53;;;;;;;34.07;29.31;99692.81;6327532;28;20047;-71
2022/06/30 08:22:30;;;;;;;9.50;2.50;;;;;;;33.99;28.72;99696.00;6328487;28;20032;-71
2022/06/30 08:25:31;;;;;;;5.57;2.90;;;;;;;33.84;28.56;99694.78;6330761;28;20119;-71
2022/06/30 08:28:33;;;;;;;5.82;2.40;;;;;;;34.69;27.63;99694.94;6342059;28;20028;-71
2022/06/30 08:31:35;;;;;;;9.40;2.97;;;;;;;35.04;27.02;99692.72;6311074;28;20051;-72
2022/06/30 08:34:36;;;;;;;6.13;2.70;;;;;;;35.33;28.42;99695.84;6285613;28;20785;-69
2022/06/30 08:37:37;;;;;;;6.32;2.40;;;;;;;35.22;26.59;99691.47;6322039;28;20395;-69
2022/06/30 08:43:59;;;;;;;6.25;2.28;;;;;;;35.44;26.43;99692.09;6320874;28;20047;-69
2022/06/30 08:47:02;;;;;;;7.43;2.28;;;;;;;35.56;26.66;99688.31;6320159;28;20088;-69
2022/06/30 08:50:10;;;;;;;4.95;2.40;;;;;;;35.89;29.12;99689.72;6341833;28;20135;-69
2022/06/30 08:53:15;;;;;;;6.32;2.25;;;;;;;36.02;27.05;99685.69;6327231;28;20047;-69
2022/06/30 08:56:17;;;;;;;7.93;2.42;;;;;;;36.37;28.87;99689.53;6345517;28;20497;-69
2022/06/30 08:59:20;;;;;;;8.48;2.40;;;;;;;36.02;26.70;99688.41;6327388;28;20046;-69
2022/06/30 09:02:21;;;;;;;9.02;2.80;;;;;;;36.62;25.17;99694.09;6310638;28;20490;-70
2022/06/30 09:05:22;;;;;;;6.43;2.53;;;;;;;36.40;24.67;99686.25;6312252;28;20042;-70
2022/06/30 09:08:26;;;;;;;5.38;2.35;;;;;;;35.92;24.50;99683.78;6313833;28;20067;-69
2022/06/30 09:11:52;;;;;;;3.05;2.13;;;;;;;36.03;25.36;99690.03;6312266;28;20063;-70
2022/06/30 09:14:54;;;;;;;3.88;2.40;;;;;;;36.07;25.13;99688.41;6333811;28;20040;-70
2022/06/30 09:17:55;;;;;;;10.18;2.45;;;;;;;36.22;29.38;99682.19;6349332;28;20042;-69
2022/06/30 09:20:58;;;;;;;8.45;2.70;;;;;;;36.41;25.02;99677.81;6306691;28;20040;-70
2022/06/30 09:23:59;;;;;;;3.95;2.30;;;;;;;36.55;28.25;99678.09;6324834;28;20051;-69
2022/06/30 09:27:08;;;;;;;6.13;2.40;;;;;;;36.67;28.22;99672.34;6324567;28;20482;-70
2022/06/30 09:30:14;;;;;;;11.63;2.78;;;;;;;36.66;27.70;99682.41;6324380;28;20450;-72
2022/06/30 09:33:16;;;;;;;7.97;3.05;;;;;;;36.96;27.09;99675.25;6306447;28;20040;-71
2022/06/30 09:36:25;;;;;;;9.20;2.40;;;;;;;37.13;26.02;99671.41;6289899;28;20044;-71
2022/06/30 09:39:26;;;;;;;8.43;2.70;;;;;;;37.16;27.03;99679.81;6324492;28;20048;-72
2022/06/30 09:42:45;;;;;;;10.82;2.47;;;;;;;37.10;27.58;99670.88;6306278;28;20044;-70
2022/06/30 09:45:46;;;;;;;5.88;2.38;;;;;;;36.18;25.10;99673.78;6323941;28;20044;-70
2022/06/30 09:48:47;;;;;;;7.55;2.60;;;;;;;36.84;24.21;99674.75;6309111;28;20039;-71
2022/06/30 09:51:48;;;;;;;4.85;2.70;;;;;;;36.31;24.83;99662.34;6313056;28;20046;-70
2022/06/30 09:55:00;;;;;;;6.72;2.35;;;;;;;36.43;25.72;99663.97;6311208;28;20040;-70
2022/06/30 09:58:04;;;;;;;10.85;2.50;;;;;;;37.04;24.43;99665.72;6348296;28;20047;-71
2022/06/30 10:01:05;;;;;;;11.48;2.97;;;;;;;37.53;25.60;99648.63;6314272;28;20044;-70
2022/06/30 10:04:10;;;;;;;11.60;2.33;;;;;;;37.07;23.30;99646.13;6297585;28;20134;-70
2022/06/30 10:07:11;;;;;;;7.80;2.70;;;;;;;37.55;23.79;99649.13;6349080;28;20077;-71
2022/06/30 10:10:15;;;;;;;11.45;2.47;;;;;;;37.89;22.37;99651.91;6330635;28;20046;-70
2022/06/30 10:13:17;;;;;;;5.95;2.35;;;;;;;37.76;23.20;99647.13;6330766;28;20092;-70
2022/06/30 10:16:20;;;;;;;7.63;2.33;;;;;;;38.21;27.14;99642.41;6347890;28;20481;-70
2022/06/30 10:19:21;;;;;;;8.40;2.60;;;;;;;38.33;22.35;99646.66;6334285;28;20313;-70
2022/06/30 10:22:25;;;;;;;6.47;2.05;;;;;;;38.37;22.05;99642.25;6342292;28;20036;-70
2022/06/30 10:25:26;;;;;;;4.78;2.20;;;;;;;38.52;22.70;99639.41;6289170;28;20052;-70
2022/06/30 10:28:30;;;;;;;8.32;2.45;;;;;;;38.52;23.77;99633.13;6323115;28;20051;-71
2022/06/30 10:31:41;;;;;;;4.28;2.25;;;;;;;38.69;23.95;99631.59;6288501;28;20078;-70
2022/06/30 10:34:52;;;;;;;4.40;2.30;;;;;;;38.83;21.92;99625.41;6322796;28;20044;-70
2022/06/30 10:38:20;;;;;;;5.30;2.10;;;;;;;38.57;23.48;99633.91;6304888;28;20040;-71
2022/06/30 10:41:24;;;;;;;9.57;2.40;;;;;;;38.79;21.27;99636.06;6322558;28;20040;-71
2022/06/30 10:44:29;;;;;;;5.07;2.40;;;;;;;38.78;22.88;99631.75;6287895;28;20058;-70
2022/06/30 10:47:30;;;;;;;7.95;2.13;;;;;;;39.04;22.09;99624.09;6304206;28;20052;-71
2022/06/30 10:50:45;;;;;;;7.78;2.40;;;;;;;39.20;23.17;99629.31;6304468;28;20040;-70
2022/06/30 10:53:50;;;;;;;7.85;2.30;;;;;;;39.16;23.38;99615.44;6322335;28;20044;-70
2022/06/30 10:56:55;;;;;;;6.47;2.17;;;;;;;39.34;23.35;99619.28;6304203;28;20071;-70
2022/06/30 10:59:56;;;;;;;5.15;2.47;;;;;;;39.20;20.85;99605.56;6322558;28;20051;-70
2022/06/30 11:02:57;;;;;;;4.03;2.20;;;;;;;39.28;20.72;99609.56;6287727;28;20086;-71
2022/06/30 11:06:07;;;;;;;3.25;2.28;;;;;;;39.42;20.54;99609.66;6304080;28;20123;-71
2022/06/30 11:09:08;;;;;;;3.15;2.08;;;;;;;39.64;20.69;99614.47;6313767;28;20078;-70
2022/06/30 11:12:09;;;;;;;6.70;2.05;;;;;;;39.58;20.49;99604.75;6321451;28;20040;-70
2022/06/30 11:15:14;;;;;;;7.75;2.47;;;;;;;39.44;19.28;99605.53;6345100;28;20415;-71
2022/06/30 11:18:15;;;;;;;4.68;2.10;;;;;;;39.35;19.98;99592.81;6347265;28;20076;-71
2022/06/30 11:21:16;;;;;;;9.02;2.10;;;;;;;39.31;20.24;99595.34;6312709;28;20043;-70
2022/06/30 11:24:24;;;;;;;4.50;2.00;;;;;;;39.79;20.75;99597.88;6302727;28;20051;-70
2022/06/30 11:27:25;;;;;;;4.63;2.00;;;;;;;39.81;20.38;99589.38;6341388;28;20485;-70
2022/06/30 11:30:32;;;;;;;2.45;2.00;;;;;;;39.68;18.62;99588.22;6332916;28;20356;-70
2022/06/30 11:33:33;;;;;;;2.20;1.70;;;;;;;39.86;19.38;99586.56;6321801;28;20039;-70
2022/06/30 11:36:35;;;;;;;9.38;2.17;;;;;;;39.82;19.60;99582.78;6273887;28;20085;-70
2022/06/30 11:39:36;;;;;;;6.38;2.58;;;;;;;39.94;19.35;99580.44;6312496;28;20044;-70
2022/06/30 11:42:37;;;;;;;7.38;2.30;;;;;;;39.66;19.59;99580.34;6296910;28;20047;-70
2022/06/30 11:45:38;;;;;;;4.03;1.98;;;;;;;39.90;18.71;99565.75;6303158;28;20490;-70
2022/06/30 11:48:39;;;;;;;9.30;2.10;;;;;;;39.79;20.26;99576.03;6306549;28;20040;-70
2022/06/30 11:51:41;;;;;;;3.80;2.15;;;;;;;39.85;19.43;99571.28;6311657;28;20554;-70
2022/06/30 11:54:54;;;;;;;5.15;2.00;;;;;;;39.15;18.97;99558.47;6335821;28;20115;-70
2022/06/30 11:57:55;;;;;;;5.00;2.10;;;;;;;39.36;20.35;99564.44;6320958;28;20040;-70
2022/06/30 12:00:56;;;;;;;6.20;2.20;;;;;;;39.32;20.69;99566.94;6308607;28;20099;-70
2022/06/30 12:03:57;;;;;;;7.82;2.10;;;;;;;39.25;18.99;99556.41;6286500;28;20051;-70
2022/06/30 12:07:01;;;;;;;5.40;1.92;;;;;;;39.26;20.53;99566.19;6303061;28;20046;-70
2022/06/30 12:10:05;;;;;;;7.82;1.98;;;;;;;39.77;19.01;99561.88;6328084;28;20031;-70
2022/06/30 12:13:06;;;;;;;4.40;2.00;;;;;;;39.99;18.74;99563.13;6346037;28;20042;-70
2022/06/30 12:16:09;;;;;;;4.00;1.90;;;;;;;40.01;18.50;99567.19;6293986;28;20052;-70
2022/06/30 12:19:15;;;;;;;6.72;2.10;;;;;;;39.86;21.09;99562.00;6341616;28;20458;-70
2022/06/30 12:22:17;;;;;;;2.80;1.70;;;;;;;39.55;18.23;99550.78;6327629;28;20062;-71
2022/06/30 12:25:19;;;;;;;5.65;2.25;;;;;;;39.39;18.26;99548.25;6345929;28;20043;-70
2022/06/30 12:28:20;;;;;;;4.28;1.77;;;;;;;39.33;18.64;99548.63;6345996;28;20051;-70
2022/06/30 12:31:29;;;;;;;4.13;1.77;;;;;;;39.52;20.61;99541.28;6327818;28;20547;-70
2022/06/30 12:34:31;;;;;;;3.60;1.90;;;;;;;39.12;18.83;99529.06;6345916;28;20039;-70
2022/06/30 12:37:33;;;;;;;8.85;1.98;;;;;;;39.11;19.99;99538.38;6345798;28;20432;-71
2022/06/30 12:40:37;;;;;;;10.48;2.10;;;;;;;39.28;20.08;99538.63;6348215;28;20044;-70
2022/06/30 12:43:48;;;;;;;3.03;1.73;;;;;;;39.06;19.08;99531.03;6332863;28;20054;-70
2022/06/30 12:46:49;;;;;;;3.33;1.75;;;;;;;39.51;19.58;99538.84;6330406;28;20083;-70
2022/06/30 12:49:50;;;;;;;5.22;2.10;;;;;;;39.48;18.99;99534.78;6290697;28;20429;-70
2022/06/30 12:52:51;;;;;;;4.07;1.70;;;;;;;39.42;18.44;99534.06;6307253;28;20048;-70
2022/06/30 12:55:58;;;;;;;3.97;1.85;;;;;;;39.34;17.70;99537.44;6336681;28;20159;-70
2022/06/30 12:59:10;;;;;;;6.65;1.95;;;;;;;39.28;20.28;99528.50;6307083;28;20067;-70
2022/06/30 13:02:14;;;;;;;2.47;1.70;;;;;;;39.34;18.29;99529.25;6349652;28;20498;-70
2022/06/30 13:05:15;;;;;;;3.05;2.15;;;;;;;39.03;18.81;99516.09;6316586;28;20039;-70
2022/06/30 13:08:17;;;;;;;7.07;1.92;;;;;;;38.94;19.30;99514.28;6316440;28;20040;-70
2022/06/30 13:11:24;;;;;;;5.90;1.80;;;;;;;39.07;20.80;99519.84;6325077;28;20038;-70
2022/06/30 13:14:27;;;;;;;6.25;1.85;;;;;;;39.06;19.99;99517.41;6325417;28;20042;-70
2022/06/30 13:17:28;;;;;;;4.63;1.73;;;;;;;39.15;19.12;99514.84;6306668;28;20072;-70
2022/06/30 13:20:29;;;;;;;3.88;1.90;;;;;;;38.52;18.07;99508.59;6306845;28;20048;-70
2022/06/30 13:23:30;;;;;;;5.65;2.17;;;;;;;38.17;18.74;99515.25;6290050;28;20051;-69
2022/06/30 13:26:30;;;;;;;7.55;2.00;;;;;;;38.47;19.54;99514.91;6273622;28;20047;-70
2022/06/30 13:29:35;;;;;;;7.53;2.13;;;;;;;38.31;19.06;99516.19;6327908;28;20063;-71
2022/06/30 13:32:36;;;;;;;3.05;2.00;;;;;;;38.18;20.46;99508.69;6314853;28;20052;-70
2022/06/30 13:35:37;;;;;;;7.30;2.00;;;;;;;38.03;21.15;99506.94;6350010;28;20442;-71
2022/06/30 13:38:38;;;;;;;4.35;2.00;;;;;;;37.92;20.63;99503.50;6305736;28;20044;-70
2022/06/30 13:41:39;;;;;;;3.78;1.90;;;;;;;38.02;21.64;99497.16;6306501;28;20631;-71
2022/06/30 13:44:40;;;;;;;4.72;2.13;;;;;;;38.13;19.42;99497.88;6311971;28;20044;-71
2022/06/30 13:47:40;;;;;;;5.07;1.92;;;;;;;38.30;21.02;99493.59;6281236;28;20048;-70
2022/06/30 13:50:41;;;;;;;3.10;1.80;;;;;;;38.13;18.75;99501.41;6297256;28;20396;-70
2022/06/30 13:53:42;;;;;;;7.18;1.92;;;;;;;38.17;20.58;99493.47;6297815;28;20040;-70
2022/06/30 13:56:44;;;;;;;6.07;2.10;;;;;;;38.14;19.34;99504.94;6304081;28;20071;-70
2022/06/30 13:59:44;;;;;;;4.72;1.90;;;;;;;38.10;18.86;99505.53;6322871;28;20050;-70
2022/06/30 14:02:45;;;;;;;3.85;1.90;;;;;;;38.06;19.97;99500.94;6305913;28;20059;-70
2022/06/30 14:05:46;;;;;;;2.50;1.70;;;;;;;37.81;20.68;99502.81;6322540;28;20075;-70
2022/06/30 14:08:48;;;;;;;3.03;1.90;;;;;;;37.69;19.38;99499.66;6322487;28;20047;-70
2022/06/30 14:11:49;;;;;;;11.93;2.05;;;;;;;37.46;19.60;99496.56;6321792;28;20410;-70
2022/06/30 14:14:50;;;;;;;8.07;1.90;;;;;;;37.75;19.30;99503.97;6322314;28;20075;-70
2022/06/30 14:17:51;;;;;;;4.20;1.70;;;;;;;37.75;19.67;99501.25;6305443;28;20058;-70
2022/06/30 14:20:52;;;;;;;5.63;1.90;;;;;;;37.81;19.43;99496.56;6288782;28;20509;-70
2022/06/30 14:23:53;;;;;;;5.93;2.10;;;;;;;37.72;18.36;99492.84;6305347;28;20474;-70
2022/06/30 14:26:53;;;;;;;5.15;1.80;;;;;;;37.61;19.59;99489.41;6288710;28;20087;-70
2022/06/30 14:29:54;;;;;;;5.07;2.10;;;;;;;37.65;19.90;99485.81;6305236;28;20047;-71